createdAt,value
2023-03-29T00:00:17.085Z,2.60
2023-03-29T00:02:48.546Z,2.43
2023-03-29T00:05:18.376Z,3.13
2023-03-29T00:07:45.535Z,2.90
2023-03-29T00:10:13.174Z,2.42
2023-03-29T00:12:41.610Z,3.10
2023-03-29T00:15:09.086Z,3.07
2023-03-29T00:17:36.168Z,2.90
2023-03-29T00:20:06.229Z,2.53
2023-03-29T00:22:33.116Z,2.85
2023-03-29T00:24:59.871Z,3.35
2023-03-29T00:27:26.660Z,3.13
2023-03-29T00:29:53.611Z,2.88
2023-03-29T00:32:20.579Z,3.03
2023-03-29T00:34:50.713Z,3.35
2023-03-29T00:37:20.607Z,2.72
2023-03-29T00:39:48.238Z,2.70
2023-03-29T00:42:17.649Z,2.97
2023-03-29T00:44:56.760Z,2.28
2023-03-29T00:47:38.193Z,2.58
2023-03-29T00:50:18.455Z,3.40
2023-03-29T00:52:57.054Z,2.63
2023-03-29T00:55:26.415Z,2.95
2023-03-29T00:57:56.317Z,3.00
2023-03-29T01:00:27.931Z,2.80
2023-03-29T01:02:59.758Z,2.85
2023-03-29T01:05:33.220Z,2.70
2023-03-29T01:08:06.694Z,2.67
2023-03-29T01:10:42.707Z,3.60
2023-03-29T01:13:16.210Z,3.45
2023-03-29T01:15:45.964Z,3.10
2023-03-29T01:18:13.998Z,2.90
2023-03-29T01:20:42.336Z,2.88
2023-03-29T01:23:44.012Z,2.90
2023-03-29T01:26:33.356Z,2.90
2023-03-29T01:29:11.496Z,2.90
2023-03-29T01:31:42.657Z,2.80
2023-03-29T01:34:37.267Z,2.80
2023-03-29T01:37:15.690Z,3.38
2023-03-29T01:39:42.732Z,2.97
2023-03-29T01:42:12.859Z,3.00
2023-03-29T01:44:42.703Z,2.90
2023-03-29T01:47:19.840Z,3.10
2023-03-29T01:49:59.588Z,3.03
2023-03-29T01:52:34.451Z,2.95
2023-03-29T01:55:08.818Z,3.08
2023-03-29T01:57:38.826Z,2.57
2023-03-29T02:00:10.840Z,3.00
2023-03-29T02:02:41.776Z,2.90
2023-03-29T02:05:10.319Z,3.20
2023-03-29T02:07:38.575Z,3.00
2023-03-29T02:10:08.258Z,3.00
2023-03-29T02:12:36.048Z,3.17
2023-03-29T02:15:07.133Z,2.80
2023-03-29T02:17:34.591Z,3.15
2023-03-29T02:20:22.637Z,3.13
2023-03-29T02:23:14.522Z,2.63
2023-03-29T02:25:42.926Z,2.70
2023-03-29T02:28:09.838Z,3.00
2023-03-29T02:31:07.937Z,3.20
2023-03-29T02:33:58.833Z,3.15
2023-03-29T02:36:29.685Z,3.00
2023-03-29T02:38:59.051Z,3.00
2023-03-29T02:41:27.050Z,3.03
2023-03-29T02:43:56.702Z,3.10
2023-03-29T02:46:24.513Z,3.13
2023-03-29T02:48:53.167Z,3.00
2023-03-29T02:51:24.425Z,3.10
2023-03-29T02:53:59.264Z,2.90
2023-03-29T02:56:26.167Z,2.80
2023-03-29T02:58:52.981Z,2.55
2023-03-29T03:01:20.608Z,3.20
2023-03-29T03:03:50.792Z,3.50
2023-03-29T03:06:18.572Z,3.40
2023-03-29T03:08:45.704Z,3.13
2023-03-29T03:11:12.507Z,2.85
2023-03-29T03:13:39.658Z,3.10
2023-03-29T03:16:08.109Z,2.78
2023-03-29T03:18:35.894Z,2.97
2023-03-29T03:21:04.657Z,3.40
2023-03-29T03:23:32.394Z,3.10
2023-03-29T03:25:59.364Z,2.93
2023-03-29T03:28:27.334Z,3.03
2023-03-29T03:30:54.914Z,3.10
2023-03-29T03:33:57.080Z,3.00
2023-03-29T03:36:47.363Z,3.30
2023-03-29T03:39:14.516Z,2.90
2023-03-29T03:41:42.855Z,2.72
2023-03-29T03:44:09.764Z,3.05
2023-03-29T03:46:36.985Z,3.20
2023-03-29T03:49:05.654Z,3.72
2023-03-29T03:51:37.652Z,3.33
2023-03-29T03:54:04.937Z,3.75
2023-03-29T03:56:31.865Z,3.15
2023-03-29T03:59:05.374Z,2.90
2023-03-29T04:01:48.792Z,3.42
2023-03-29T04:04:19.986Z,2.87
2023-03-29T04:07:03.745Z,3.33
2023-03-29T04:09:37.757Z,3.13
2023-03-29T04:12:30.626Z,3.03
2023-03-29T04:14:57.781Z,3.30
2023-03-29T04:17:27.338Z,3.30
2023-03-29T04:20:13.545Z,2.85
2023-03-29T04:22:41.893Z,3.30
2023-03-29T04:25:11.800Z,3.10
2023-03-29T04:27:39.158Z,3.30
2023-03-29T04:30:14.264Z,3.37
2023-03-29T04:33:05.546Z,3.42
2023-03-29T04:35:33.734Z,4.10
2023-03-29T04:38:01.123Z,4.00
2023-03-29T04:40:29.088Z,3.78
2023-03-29T04:43:12.408Z,3.70
2023-03-29T04:45:46.666Z,3.33
2023-03-29T04:48:33.825Z,3.80
2023-03-29T04:51:00.839Z,3.53
2023-03-29T04:53:27.995Z,3.67
2023-03-29T04:55:55.626Z,3.73
2023-03-29T04:58:42.349Z,3.67
2023-03-29T05:01:09.211Z,3.33
2023-03-29T05:03:40.633Z,3.88
2023-03-29T05:06:18.094Z,3.70
2023-03-29T05:08:45.274Z,3.60
2023-03-29T05:11:26.466Z,3.42
2023-03-29T05:13:55.655Z,3.70
2023-03-29T05:16:23.196Z,3.35
2023-03-29T05:18:50.026Z,3.85
2023-03-29T05:21:18.468Z,3.80
2023-03-29T05:23:46.193Z,3.35
2023-03-29T05:26:32.009Z,3.90
2023-03-29T05:28:59.085Z,3.20
2023-03-29T05:31:26.567Z,4.15
2023-03-29T05:33:55.007Z,3.50
2023-03-29T05:36:22.235Z,4.07
2023-03-29T05:38:50.247Z,4.00
2023-03-29T05:41:19.241Z,3.40
2023-03-29T05:44:14.947Z,3.53
2023-03-29T05:46:44.095Z,3.87
2023-03-29T05:49:15.066Z,3.92
2023-03-29T05:51:56.964Z,3.83
2023-03-29T05:54:24.777Z,4.10
2023-03-29T05:56:52.204Z,4.35
2023-03-29T05:59:19.847Z,3.83
2023-03-29T06:01:48.552Z,4.38
2023-03-29T06:04:20.810Z,4.03
2023-03-29T06:07:25.829Z,4.43
2023-03-29T06:10:12.159Z,4.20
2023-03-29T06:12:42.961Z,3.73
2023-03-29T06:15:10.575Z,4.40
2023-03-29T06:17:45.844Z,4.00
2023-03-29T06:20:13.459Z,4.35
2023-03-29T06:22:43.898Z,4.57
2023-03-29T06:25:12.302Z,4.87
2023-03-29T06:27:39.924Z,4.80
2023-03-29T06:30:08.119Z,5.00
2023-03-29T06:32:36.174Z,4.55
2023-03-29T06:35:09.007Z,5.22
2023-03-29T06:37:49.416Z,4.47
2023-03-29T06:40:21.615Z,4.60
2023-03-29T06:42:48.956Z,4.93
2023-03-29T06:45:36.132Z,4.70
2023-03-29T06:48:10.734Z,5.50
2023-03-29T06:50:37.659Z,4.23
2023-03-29T06:53:10.288Z,5.10
2023-03-29T06:55:39.086Z,4.78
2023-03-29T06:58:26.569Z,5.30
2023-03-29T07:01:00.833Z,5.50
2023-03-29T07:03:46.652Z,5.10
2023-03-29T07:06:15.532Z,4.93
2023-03-29T07:08:46.870Z,5.05
